sensor_id;sensor_type;location;lat;lon;timestamp;P1;durP1;ratioP1;P2;durP2;ratioP2
6452;SDS011;3259;51.080;13.712;2023-03-14T00:02:32;2.70;;;1.27;;
6452;SDS011;3259;51.080;13.712;2023-03-14T00:05:21;1.73;;;1.00;;
6452;SDS011;3259;51.080;13.712;2023-03-14T00:08:09;2.10;;;1.08;;
6452;SDS011;3259;51.080;13.712;2023-03-14T00:11:04;4.53;;;1.27;;
6452;SDS011;3259;51.080;13.712;2023-03-14T00:13:55;2.47;;;1.17;;
6452;SDS011;3259;51.080;13.712;2023-03-14T00:16:45;2.05;;;1.33;;
6452;SDS011;3259;51.080;13.712;2023-03-14T00:19:34;1.83;;;1.13;;
6452;SDS011;3259;51.080;13.712;2023-03-14T00:22:23;2.00;;;1.27;;
6452;SDS011;3259;51.080;13.712;2023-03-14T00:25:12;0.95;;;0.85;;
6452;SDS011;3259;51.080;13.712;2023-03-14T00:28:01;1.33;;;1.13;;
6452;SDS011;3259;51.080;13.712;2023-03-14T00:30:51;1.15;;;0.82;;
6452;SDS011;3259;51.080;13.712;2023-03-14T00:33:40;2.42;;;1.50;;
6452;SDS011;3259;51.080;13.712;2023-03-14T00:36:29;1.85;;;0.95;;
6452;SDS011;3259;51.080;13.712;2023-03-14T00:39:18;2.92;;;0.75;;
6452;SDS011;3259;51.080;13.712;2023-03-14T00:42:06;2.92;;;1.05;;
6452;SDS011;3259;51.080;13.712;2023-03-14T00:44:55;1.08;;;0.82;;
6452;SDS011;3259;51.080;13.712;2023-03-14T00:47:45;1.33;;;0.80;;
6452;SDS011;3259;51.080;13.712;2023-03-14T00:50:34;0.90;;;0.70;;
6452;SDS011;3259;51.080;13.712;2023-03-14T00:53:22;2.67;;;0.85;;
6452;SDS011;3259;51.080;13.712;2023-03-14T00:56:12;2.60;;;0.70;;
6452;SDS011;3259;51.080;13.712;2023-03-14T00:59:02;1.35;;;0.80;;
6452;SDS011;3259;51.080;13.712;2023-03-14T01:01:51;2.97;;;0.80;;
6452;SDS011;3259;51.080;13.712;2023-03-14T01:04:41;3.53;;;0.77;;
6452;SDS011;3259;51.080;13.712;2023-03-14T01:07:30;1.75;;;0.80;;
6452;SDS011;3259;51.080;13.712;2023-03-14T01:10:18;3.53;;;0.90;;
6452;SDS011;3259;51.080;13.712;2023-03-14T01:13:07;0.80;;;0.63;;
6452;SDS011;3259;51.080;13.712;2023-03-14T01:16:00;0.93;;;0.73;;
6452;SDS011;3259;51.080;13.712;2023-03-14T01:18:51;1.13;;;0.70;;
6452;SDS011;3259;51.080;13.712;2023-03-14T01:21:41;2.95;;;0.70;;
6452;SDS011;3259;51.080;13.712;2023-03-14T01:24:29;0.70;;;0.70;;
6452;SDS011;3259;51.080;13.712;2023-03-14T01:27:18;0.63;;;0.30;;
6452;SDS011;3259;51.080;13.712;2023-03-14T01:30:08;0.40;;;0.40;;
6452;SDS011;3259;51.080;13.712;2023-03-14T01:32:57;0.55;;;0.35;;
6452;SDS011;3259;51.080;13.712;2023-03-14T01:35:49;0.57;;;0.57;;
6452;SDS011;3259;51.080;13.712;2023-03-14T01:38:39;0.60;;;0.60;;
6452;SDS011;3259;51.080;13.712;2023-03-14T01:41:28;0.40;;;0.32;;
6452;SDS011;3259;51.080;13.712;2023-03-14T01:44:17;1.02;;;0.38;;
6452;SDS011;3259;51.080;13.712;2023-03-14T01:47:06;0.80;;;0.50;;
6452;SDS011;3259;51.080;13.712;2023-03-14T01:49:56;0.57;;;0.57;;
6452;SDS011;3259;51.080;13.712;2023-03-14T01:52:48;0.80;;;0.50;;
6452;SDS011;3259;51.080;13.712;2023-03-14T01:55:41;1.48;;;0.68;;
6452;SDS011;3259;51.080;13.712;2023-03-14T01:58:30;0.50;;;0.50;;
6452;SDS011;3259;51.080;13.712;2023-03-14T02:01:21;3.15;;;0.50;;
6452;SDS011;3259;51.080;13.712;2023-03-14T02:04:11;0.40;;;0.30;;
6452;SDS011;3259;51.080;13.712;2023-03-14T02:07:01;0.60;;;0.60;;
6452;SDS011;3259;51.080;13.712;2023-03-14T02:09:52;0.32;;;0.20;;
6452;SDS011;3259;51.080;13.712;2023-03-14T02:12:43;0.68;;;0.32;;
6452;SDS011;3259;51.080;13.712;2023-03-14T02:15:32;3.03;;;0.52;;
6452;SDS011;3259;51.080;13.712;2023-03-14T02:18:21;0.50;;;0.50;;
6452;SDS011;3259;51.080;13.712;2023-03-14T02:21:12;0.70;;;0.47;;
6452;SDS011;3259;51.080;13.712;2023-03-14T02:24:07;0.15;;;0.15;;
6452;SDS011;3259;51.080;13.712;2023-03-14T02:27:04;1.00;;;0.43;;
6452;SDS011;3259;51.080;13.712;2023-03-14T02:29:58;0.30;;;0.22;;
6452;SDS011;3259;51.080;13.712;2023-03-14T02:32:51;0.55;;;0.43;;
6452;SDS011;3259;51.080;13.712;2023-03-14T02:35:44;1.02;;;0.50;;
6452;SDS011;3259;51.080;13.712;2023-03-14T02:38:37;0.50;;;0.50;;
6452;SDS011;3259;51.080;13.712;2023-03-14T02:41:30;0.52;;;0.40;;
6452;SDS011;3259;51.080;13.712;2023-03-14T02:44:20;0.43;;;0.30;;
6452;SDS011;3259;51.080;13.712;2023-03-14T02:47:09;0.47;;;0.40;;
6452;SDS011;3259;51.080;13.712;2023-03-14T02:50:01;0.60;;;0.55;;
6452;SDS011;3259;51.080;13.712;2023-03-14T02:52:54;0.25;;;0.25;;
6452;SDS011;3259;51.080;13.712;2023-03-14T02:55:44;0.55;;;0.40;;
6452;SDS011;3259;51.080;13.712;2023-03-14T02:58:34;0.10;;;0.10;;
6452;SDS011;3259;51.080;13.712;2023-03-14T03:01:24;0.50;;;0.40;;
6452;SDS011;3259;51.080;13.712;2023-03-14T03:04:15;0.38;;;0.38;;
6452;SDS011;3259;51.080;13.712;2023-03-14T03:07:04;0.47;;;0.28;;
6452;SDS011;3259;51.080;13.712;2023-03-14T03:09:53;0.68;;;0.40;;
6452;SDS011;3259;51.080;13.712;2023-03-14T03:12:42;0.40;;;0.40;;
6452;SDS011;3259;51.080;13.712;2023-03-14T03:15:31;0.32;;;0.32;;
6452;SDS011;3259;51.080;13.712;2023-03-14T03:18:21;0.20;;;0.20;;
6452;SDS011;3259;51.080;13.712;2023-03-14T03:21:10;0.20;;;0.20;;
6452;SDS011;3259;51.080;13.712;2023-03-14T03:23:59;0.20;;;0.20;;
6452;SDS011;3259;51.080;13.712;2023-03-14T03:26:48;1.05;;;0.28;;
6452;SDS011;3259;51.080;13.712;2023-03-14T03:29:37;0.60;;;0.30;;
6452;SDS011;3259;51.080;13.712;2023-03-14T03:32:28;0.25;;;0.25;;
6452;SDS011;3259;51.080;13.712;2023-03-14T03:35:18;0.22;;;0.22;;
6452;SDS011;3259;51.080;13.712;2023-03-14T03:38:07;0.22;;;0.22;;
6452;SDS011;3259;51.080;13.712;2023-03-14T03:40:56;0.38;;;0.30;;
6452;SDS011;3259;51.080;13.712;2023-03-14T03:43:44;2.83;;;0.20;;
6452;SDS011;3259;51.080;13.712;2023-03-14T03:46:33;0.52;;;0.28;;
6452;SDS011;3259;51.080;13.712;2023-03-14T03:49:22;0.73;;;0.20;;
6452;SDS011;3259;51.080;13.712;2023-03-14T03:52:12;0.38;;;0.38;;
6452;SDS011;3259;51.080;13.712;2023-03-14T03:55:01;0.30;;;0.17;;
6452;SDS011;3259;51.080;13.712;2023-03-14T03:57:50;0.70;;;0.40;;
6452;SDS011;3259;51.080;13.712;2023-03-14T04:00:38;1.75;;;0.25;;
6452;SDS011;3259;51.080;13.712;2023-03-14T04:03:27;0.90;;;0.20;;
6452;SDS011;3259;51.080;13.712;2023-03-14T04:06:16;0.43;;;0.40;;
6452;SDS011;3259;51.080;13.712;2023-03-14T04:09:07;0.52;;;0.10;;
6452;SDS011;3259;51.080;13.712;2023-03-14T04:11:56;0.20;;;0.20;;
6452;SDS011;3259;51.080;13.712;2023-03-14T04:14:45;0.10;;;0.10;;
6452;SDS011;3259;51.080;13.712;2023-03-14T04:17:34;1.65;;;0.10;;
6452;SDS011;3259;51.080;13.712;2023-03-14T04:20:22;0.20;;;0.20;;
6452;SDS011;3259;51.080;13.712;2023-03-14T04:23:11;0.20;;;0.20;;
6452;SDS011;3259;51.080;13.712;2023-03-14T04:26:01;0.20;;;0.20;;
6452;SDS011;3259;51.080;13.712;2023-03-14T04:28:51;0.30;;;0.20;;
6452;SDS011;3259;51.080;13.712;2023-03-14T04:31:40;0.10;;;0.10;;
6452;SDS011;3259;51.080;13.712;2023-03-14T04:34:29;0.10;;;0.10;;
6452;SDS011;3259;51.080;13.712;2023-03-14T04:37:18;0.85;;;0.10;;
6452;SDS011;3259;51.080;13.712;2023-03-14T04:40:07;0.30;;;0.20;;
6452;SDS011;3259;51.080;13.712;2023-03-14T04:42:58;0.30;;;0.25;;
6452;SDS011;3259;51.080;13.712;2023-03-14T04:45:46;0.10;;;0.10;;
6452;SDS011;3259;51.080;13.712;2023-03-14T04:48:35;0.10;;;0.10;;
6452;SDS011;3259;51.080;13.712;2023-03-14T04:51:24;0.10;;;0.10;;
6452;SDS011;3259;51.080;13.712;2023-03-14T04:54:14;0.20;;;0.20;;
6452;SDS011;3259;51.080;13.712;2023-03-14T04:57:06;1.27;;;0.38;;
6452;SDS011;3259;51.080;13.712;2023-03-14T04:59:56;0.20;;;0.20;;
6452;SDS011;3259;51.080;13.712;2023-03-14T05:02:44;0.10;;;0.10;;
6452;SDS011;3259;51.080;13.712;2023-03-14T05:05:34;0.08;;;0.08;;
6452;SDS011;3259;51.080;13.712;2023-03-14T05:08:23;0.10;;;0.10;;
6452;SDS011;3259;51.080;13.712;2023-03-14T05:11:12;0.10;;;0.10;;
6452;SDS011;3259;51.080;13.712;2023-03-14T05:14:01;0.60;;;0.10;;
6452;SDS011;3259;51.080;13.712;2023-03-14T05:16:51;0.20;;;0.20;;
6452;SDS011;3259;51.080;13.712;2023-03-14T05:19:40;0.50;;;0.38;;
6452;SDS011;3259;51.080;13.712;2023-03-14T05:22:29;0.93;;;0.20;;
6452;SDS011;3259;51.080;13.712;2023-03-14T05:25:18;0.93;;;0.10;;
6452;SDS011;3259;51.080;13.712;2023-03-14T05:28:07;2.00;;;0.10;;
6452;SDS011;3259;51.080;13.712;2023-03-14T05:30:56;5.13;;;0.10;;
6452;SDS011;3259;51.080;13.712;2023-03-14T05:33:46;1.75;;;0.10;;
6452;SDS011;3259;51.080;13.712;2023-03-14T05:36:34;1.10;;;0.28;;
6452;SDS011;3259;51.080;13.712;2023-03-14T05:39:23;0.30;;;0.30;;
6452;SDS011;3259;51.080;13.712;2023-03-14T05:42:13;2.20;;;0.20;;
6452;SDS011;3259;51.080;13.712;2023-03-14T05:45:02;2.40;;;0.38;;
6452;SDS011;3259;51.080;13.712;2023-03-14T05:47:51;2.85;;;0.22;;
6452;SDS011;3259;51.080;13.712;2023-03-14T05:50:42;2.05;;;0.20;;
6452;SDS011;3259;51.080;13.712;2023-03-14T05:53:31;4.07;;;0.40;;
6452;SDS011;3259;51.080;13.712;2023-03-14T05:56:20;4.95;;;0.30;;
6452;SDS011;3259;51.080;13.712;2023-03-14T05:59:08;1.38;;;0.20;;
6452;SDS011;3259;51.080;13.712;2023-03-14T06:01:57;0.63;;;0.20;;
6452;SDS011;3259;51.080;13.712;2023-03-14T06:04:47;3.15;;;0.30;;
6452;SDS011;3259;51.080;13.712;2023-03-14T06:07:37;2.47;;;0.30;;
6452;SDS011;3259;51.080;13.712;2023-03-14T06:10:26;3.72;;;0.65;;
6452;SDS011;3259;51.080;13.712;2023-03-14T06:13:15;3.10;;;0.30;;
6452;SDS011;3259;51.080;13.712;2023-03-14T06:16:04;1.70;;;0.60;;
6452;SDS011;3259;51.080;13.712;2023-03-14T06:18:53;3.15;;;0.55;;
6452;SDS011;3259;51.080;13.712;2023-03-14T06:21:42;0.38;;;0.38;;
6452;SDS011;3259;51.080;13.712;2023-03-14T06:24:32;1.48;;;0.80;;
6452;SDS011;3259;51.080;13.712;2023-03-14T06:27:21;4.13;;;0.73;;
6452;SDS011;3259;51.080;13.712;2023-03-14T06:30:10;1.55;;;0.55;;
6452;SDS011;3259;51.080;13.712;2023-03-14T06:33:01;2.42;;;0.80;;
6452;SDS011;3259;51.080;13.712;2023-03-14T06:35:50;2.53;;;0.73;;
6452;SDS011;3259;51.080;13.712;2023-03-14T06:38:39;1.55;;;0.85;;
6452;SDS011;3259;51.080;13.712;2023-03-14T06:41:29;3.92;;;0.82;;
6452;SDS011;3259;51.080;13.712;2023-03-14T06:44:17;1.08;;;0.60;;
6452;SDS011;3259;51.080;13.712;2023-03-14T06:47:06;4.78;;;0.70;;
6452;SDS011;3259;51.080;13.712;2023-03-14T06:49:55;1.33;;;0.88;;
6452;SDS011;3259;51.080;13.712;2023-03-14T06:52:44;2.75;;;0.73;;
6452;SDS011;3259;51.080;13.712;2023-03-14T06:55:34;0.98;;;0.68;;
6452;SDS011;3259;51.080;13.712;2023-03-14T06:58:25;3.40;;;0.73;;
6452;SDS011;3259;51.080;13.712;2023-03-14T07:01:17;1.95;;;0.73;;
6452;SDS011;3259;51.080;13.712;2023-03-14T07:04:10;1.50;;;0.68;;
6452;SDS011;3259;51.080;13.712;2023-03-14T07:06:59;1.88;;;0.70;;
6452;SDS011;3259;51.080;13.712;2023-03-14T07:09:47;2.45;;;0.45;;
6452;SDS011;3259;51.080;13.712;2023-03-14T07:12:36;1.77;;;0.57;;
6452;SDS011;3259;51.080;13.712;2023-03-14T07:15:27;0.75;;;0.38;;
6452;SDS011;3259;51.080;13.712;2023-03-14T07:18:16;0.93;;;0.38;;
6452;SDS011;3259;51.080;13.712;2023-03-14T07:21:05;0.57;;;0.30;;
6452;SDS011;3259;51.080;13.712;2023-03-14T07:23:55;0.65;;;0.52;;
6452;SDS011;3259;51.080;13.712;2023-03-14T07:26:44;1.30;;;0.45;;
6452;SDS011;3259;51.080;13.712;2023-03-14T07:29:33;1.65;;;0.40;;
6452;SDS011;3259;51.080;13.712;2023-03-14T07:32:23;1.50;;;0.60;;
6452;SDS011;3259;51.080;13.712;2023-03-14T07:35:12;1.10;;;0.70;;
6452;SDS011;3259;51.080;13.712;2023-03-14T07:38:01;0.57;;;0.40;;
6452;SDS011;3259;51.080;13.712;2023-03-14T07:40:50;1.50;;;0.30;;
6452;SDS011;3259;51.080;13.712;2023-03-14T07:43:40;0.40;;;0.40;;
6452;SDS011;3259;51.080;13.712;2023-03-14T07:46:29;0.68;;;0.43;;
6452;SDS011;3259;51.080;13.712;2023-03-14T07:49:19;1.10;;;0.30;;
6452;SDS011;3259;51.080;13.712;2023-03-14T07:52:08;0.50;;;0.43;;
6452;SDS011;3259;51.080;13.712;2023-03-14T07:54:57;0.70;;;0.40;;
6452;SDS011;3259;51.080;13.712;2023-03-14T07:57:46;2.60;;;0.40;;
6452;SDS011;3259;51.080;13.712;2023-03-14T08:00:35;0.40;;;0.20;;
6452;SDS011;3259;51.080;13.712;2023-03-14T08:03:24;0.40;;;0.20;;
6452;SDS011;3259;51.080;13.712;2023-03-14T08:06:14;0.75;;;0.40;;
6452;SDS011;3259;51.080;13.712;2023-03-14T08:09:03;0.20;;;0.20;;
6452;SDS011;3259;51.080;13.712;2023-03-14T08:11:52;1.42;;;0.38;;
6452;SDS011;3259;51.080;13.712;2023-03-14T08:14:43;0.10;;;0.10;;
6452;SDS011;3259;51.080;13.712;2023-03-14T08:17:32;1.10;;;0.30;;
6452;SDS011;3259;51.080;13.712;2023-03-14T08:20:22;0.30;;;0.20;;
6452;SDS011;3259;51.080;13.712;2023-03-14T08:23:13;0.75;;;0.30;;
6452;SDS011;3259;51.080;13.712;2023-03-14T08:26:02;0.30;;;0.30;;
6452;SDS011;3259;51.080;13.712;2023-03-14T08:28:50;0.35;;;0.35;;
6452;SDS011;3259;51.080;13.712;2023-03-14T08:31:39;0.28;;;0.28;;
6452;SDS011;3259;51.080;13.712;2023-03-14T08:34:29;0.20;;;0.20;;
6452;SDS011;3259;51.080;13.712;2023-03-14T08:37:17;2.28;;;0.20;;
6452;SDS011;3259;51.080;13.712;2023-03-14T08:40:14;0.10;;;0.10;;
6452;SDS011;3259;51.080;13.712;2023-03-14T08:43:04;0.32;;;0.25;;
6452;SDS011;3259;51.080;13.712;2023-03-14T08:45:53;0.20;;;0.20;;
6452;SDS011;3259;51.080;13.712;2023-03-14T08:48:42;0.30;;;0.30;;
6452;SDS011;3259;51.080;13.712;2023-03-14T08:51:30;0.52;;;0.30;;
6452;SDS011;3259;51.080;13.712;2023-03-14T08:54:19;0.20;;;0.15;;
6452;SDS011;3259;51.080;13.712;2023-03-14T08:57:09;1.75;;;0.40;;
6452;SDS011;3259;51.080;13.712;2023-03-14T08:59:58;1.00;;;0.30;;
6452;SDS011;3259;51.080;13.712;2023-03-14T09:02:47;0.10;;;0.10;;
6452;SDS011;3259;51.080;13.712;2023-03-14T09:05:36;0.47;;;0.10;;
6452;SDS011;3259;51.080;13.712;2023-03-14T09:08:24;0.57;;;0.20;;
6452;SDS011;3259;51.080;13.712;2023-03-14T09:11:13;0.28;;;0.28;;
6452;SDS011;3259;51.080;13.712;2023-03-14T09:14:03;0.10;;;0.00;;
6452;SDS011;3259;51.080;13.712;2023-03-14T09:16:52;0.65;;;0.20;;
6452;SDS011;3259;51.080;13.712;2023-03-14T09:19:41;0.20;;;0.20;;
6452;SDS011;3259;51.080;13.712;2023-03-14T09:22:29;0.20;;;0.10;;
6452;SDS011;3259;51.080;13.712;2023-03-14T09:25:18;0.20;;;0.15;;
6452;SDS011;3259;51.080;13.712;2023-03-14T09:28:07;0.43;;;0.10;;
6452;SDS011;3259;51.080;13.712;2023-03-14T09:30:57;0.30;;;0.10;;
6452;SDS011;3259;51.080;13.712;2023-03-14T09:33:46;0.22;;;0.10;;
6452;SDS011;3259;51.080;13.712;2023-03-14T09:36:35;0.00;;;0.00;;
6452;SDS011;3259;51.080;13.712;2023-03-14T09:39:28;0.20;;;0.20;;
6452;SDS011;3259;51.080;13.712;2023-03-14T09:42:18;1.13;;;0.10;;
6452;SDS011;3259;51.080;13.712;2023-03-14T09:45:11;0.10;;;0.10;;
6452;SDS011;3259;51.080;13.712;2023-03-14T09:48:03;0.13;;;0.13;;
6452;SDS011;3259;51.080;13.712;2023-03-14T09:50:53;0.35;;;0.10;;
6452;SDS011;3259;51.080;13.712;2023-03-14T09:53:44;0.52;;;0.20;;
6452;SDS011;3259;51.080;13.712;2023-03-14T09:56:33;0.52;;;0.43;;
6452;SDS011;3259;51.080;13.712;2023-03-14T09:59:22;0.10;;;0.03;;
6452;SDS011;3259;51.080;13.712;2023-03-14T10:02:13;0.50;;;0.20;;
6452;SDS011;3259;51.080;13.712;2023-03-14T10:05:07;0.15;;;0.10;;
6452;SDS011;3259;51.080;13.712;2023-03-14T10:08:02;1.25;;;0.10;;
6452;SDS011;3259;51.080;13.712;2023-03-14T10:10:51;0.20;;;0.10;;
6452;SDS011;3259;51.080;13.712;2023-03-14T10:13:48;0.00;;;0.00;;
6452;SDS011;3259;51.080;13.712;2023-03-14T10:16:40;0.30;;;0.10;;
6452;SDS011;3259;51.080;13.712;2023-03-14T10:19:30;0.00;;;0.00;;
6452;SDS011;3259;51.080;13.712;2023-03-14T10:22:20;0.20;;;0.20;;
6452;SDS011;3259;51.080;13.712;2023-03-14T10:25:10;0.30;;;0.30;;
6452;SDS011;3259;51.080;13.712;2023-03-14T10:28:22;0.10;;;0.10;;
6452;SDS011;3259;51.080;13.712;2023-03-14T10:31:12;0.10;;;0.10;;
6452;SDS011;3259;51.080;13.712;2023-03-14T10:34:04;0.10;;;0.10;;
6452;SDS011;3259;51.080;13.712;2023-03-14T10:36:54;0.28;;;0.10;;
6452;SDS011;3259;51.080;13.712;2023-03-14T10:39:47;0.52;;;0.10;;
6452;SDS011;3259;51.080;13.712;2023-03-14T10:42:39;0.13;;;0.00;;
6452;SDS011;3259;51.080;13.712;2023-03-14T10:45:31;1.52;;;0.13;;
6452;SDS011;3259;51.080;13.712;2023-03-14T10:48:21;0.00;;;0.00;;
6452;SDS011;3259;51.080;13.712;2023-03-14T10:51:13;0.32;;;0.30;;
6452;SDS011;3259;51.080;13.712;2023-03-14T10:54:12;0.30;;;0.10;;
6452;SDS011;3259;51.080;13.712;2023-03-14T10:57:04;0.10;;;0.10;;
6452;SDS011;3259;51.080;13.712;2023-03-14T10:59:53;0.10;;;0.10;;
6452;SDS011;3259;51.080;13.712;2023-03-14T11:02:49;0.10;;;0.10;;
6452;SDS011;3259;51.080;13.712;2023-03-14T11:05:48;0.10;;;0.10;;
6452;SDS011;3259;51.080;13.712;2023-03-14T11:08:42;0.10;;;0.05;;
6452;SDS011;3259;51.080;13.712;2023-03-14T11:11:34;1.02;;;0.10;;
6452;SDS011;3259;51.080;13.712;2023-03-14T11:14:26;0.43;;;0.22;;
6452;SDS011;3259;51.080;13.712;2023-03-14T11:17:20;0.10;;;0.10;;
6452;SDS011;3259;51.080;13.712;2023-03-14T11:20:17;0.35;;;0.10;;
6452;SDS011;3259;51.080;13.712;2023-03-14T11:23:14;0.10;;;0.10;;
6452;SDS011;3259;51.080;13.712;2023-03-14T11:26:09;0.35;;;0.10;;
6452;SDS011;3259;51.080;13.712;2023-03-14T11:29:08;0.08;;;0.08;;
6452;SDS011;3259;51.080;13.712;2023-03-14T11:32:10;0.13;;;0.10;;
6452;SDS011;3259;51.080;13.712;2023-03-14T11:35:02;0.08;;;0.05;;
6452;SDS011;3259;51.080;13.712;2023-03-14T11:37:54;0.03;;;0.03;;
6452;SDS011;3259;51.080;13.712;2023-03-14T11:40:45;0.35;;;0.10;;
6452;SDS011;3259;51.080;13.712;2023-03-14T11:43:36;0.03;;;0.03;;
6452;SDS011;3259;51.080;13.712;2023-03-14T11:46:29;0.00;;;0.00;;
6452;SDS011;3259;51.080;13.712;2023-03-14T11:49:26;0.45;;;0.00;;
6452;SDS011;3259;51.080;13.712;2023-03-14T11:52:20;0.03;;;0.03;;
6452;SDS011;3259;51.080;13.712;2023-03-14T11:55:11;0.30;;;0.30;;
6452;SDS011;3259;51.080;13.712;2023-03-14T11:58:09;0.00;;;0.00;;
6452;SDS011;3259;51.080;13.712;2023-03-14T12:01:01;0.00;;;0.00;;
6452;SDS011;3259;51.080;13.712;2023-03-14T12:03:54;0.00;;;0.00;;
6452;SDS011;3259;51.080;13.712;2023-03-14T12:06:50;0.10;;;0.10;;
6452;SDS011;3259;51.080;13.712;2023-03-14T12:09:39;0.00;;;0.00;;
6452;SDS011;3259;51.080;13.712;2023-03-14T12:12:31;0.10;;;0.10;;
6452;SDS011;3259;51.080;13.712;2023-03-14T12:15:22;0.00;;;0.00;;
6452;SDS011;3259;51.080;13.712;2023-03-14T12:18:16;0.10;;;0.05;;
6452;SDS011;3259;51.080;13.712;2023-03-14T12:21:09;0.85;;;0.00;;
6452;SDS011;3259;51.080;13.712;2023-03-14T12:24:02;0.00;;;0.00;;
6452;SDS011;3259;51.080;13.712;2023-03-14T12:26:53;0.00;;;0.00;;
6452;SDS011;3259;51.080;13.712;2023-03-14T12:29:58;0.30;;;0.25;;
6452;SDS011;3259;51.080;13.712;2023-03-14T12:36:29;0.10;;;0.10;;
6452;SDS011;3259;51.080;13.712;2023-03-14T12:39:43;0.08;;;0.08;;
6452;SDS011;3259;51.080;13.712;2023-03-14T12:42:37;0.40;;;0.10;;
6452;SDS011;3259;51.080;13.712;2023-03-14T12:45:31;0.10;;;0.10;;
6452;SDS011;3259;51.080;13.712;2023-03-14T12:48:22;0.00;;;0.00;;
6452;SDS011;3259;51.080;13.712;2023-03-14T12:51:12;0.20;;;0.00;;
6452;SDS011;3259;51.080;13.712;2023-03-14T12:54:06;0.15;;;0.15;;
6452;SDS011;3259;51.080;13.712;2023-03-14T12:57:24;0.00;;;0.00;;
6452;SDS011;3259;51.080;13.712;2023-03-14T13:00:17;0.00;;;0.00;;
6452;SDS011;3259;51.080;13.712;2023-03-14T13:03:13;0.00;;;0.00;;
6452;SDS011;3259;51.080;13.712;2023-03-14T13:06:09;0.00;;;0.00;;
6452;SDS011;3259;51.080;13.712;2023-03-14T13:09:01;0.00;;;0.00;;
6452;SDS011;3259;51.080;13.712;2023-03-14T13:12:29;0.15;;;0.00;;
6452;SDS011;3259;51.080;13.712;2023-03-14T13:15:25;0.00;;;0.00;;
6452;SDS011;3259;51.080;13.712;2023-03-14T13:18:17;0.00;;;0.00;;
6452;SDS011;3259;51.080;13.712;2023-03-14T13:21:13;0.10;;;0.00;;
6452;SDS011;3259;51.080;13.712;2023-03-14T13:24:05;0.10;;;0.00;;
6452;SDS011;3259;51.080;13.712;2023-03-14T13:26:56;0.10;;;0.10;;
6452;SDS011;3259;51.080;13.712;2023-03-14T13:29:47;0.00;;;0.00;;
6452;SDS011;3259;51.080;13.712;2023-03-14T13:32:39;0.10;;;0.10;;
6452;SDS011;3259;51.080;13.712;2023-03-14T13:35:29;0.00;;;0.00;;
6452;SDS011;3259;51.080;13.712;2023-03-14T13:38:28;0.22;;;0.00;;
6452;SDS011;3259;51.080;13.712;2023-03-14T13:41:17;0.00;;;0.00;;
6452;SDS011;3259;51.080;13.712;2023-03-14T13:44:07;0.73;;;0.30;;
6452;SDS011;3259;51.080;13.712;2023-03-14T13:46:59;1.52;;;0.00;;
6452;SDS011;3259;51.080;13.712;2023-03-14T13:49:48;0.00;;;0.00;;
6452;SDS011;3259;51.080;13.712;2023-03-14T13:52:37;0.00;;;0.00;;
6452;SDS011;3259;51.080;13.712;2023-03-14T13:55:27;0.00;;;0.00;;
6452;SDS011;3259;51.080;13.712;2023-03-14T13:58:25;0.30;;;0.00;;
6452;SDS011;3259;51.080;13.712;2023-03-14T14:01:15;0.00;;;0.00;;
6452;SDS011;3259;51.080;13.712;2023-03-14T14:04:07;0.03;;;0.00;;
6452;SDS011;3259;51.080;13.712;2023-03-14T14:06:57;5.03;;;0.10;;
6452;SDS011;3259;51.080;13.712;2023-03-14T14:09:49;3.13;;;0.30;;
6452;SDS011;3259;51.080;13.712;2023-03-14T14:12:39;3.55;;;0.20;;
6452;SDS011;3259;51.080;13.712;2023-03-14T14:15:30;0.90;;;0.10;;
6452;SDS011;3259;51.080;13.712;2023-03-14T14:18:21;1.85;;;0.10;;
6452;SDS011;3259;51.080;13.712;2023-03-14T14:21:13;3.22;;;0.13;;
6452;SDS011;3259;51.080;13.712;2023-03-14T14:24:02;2.17;;;0.22;;
6452;SDS011;3259;51.080;13.712;2023-03-14T14:26:54;5.05;;;0.10;;
6452;SDS011;3259;51.080;13.712;2023-03-14T14:29:56;6.90;;;0.22;;
6452;SDS011;3259;51.080;13.712;2023-03-14T14:32:49;28.15;;;0.75;;
6452;SDS011;3259;51.080;13.712;2023-03-14T14:35:39;1.77;;;0.13;;
6452;SDS011;3259;51.080;13.712;2023-03-14T14:38:34;3.70;;;0.10;;
6452;SDS011;3259;51.080;13.712;2023-03-14T14:41:26;0.10;;;0.10;;
6452;SDS011;3259;51.080;13.712;2023-03-14T14:44:16;1.75;;;0.40;;
6452;SDS011;3259;51.080;13.712;2023-03-14T14:47:12;28.42;;;1.58;;
6452;SDS011;3259;51.080;13.712;2023-03-14T14:50:03;14.95;;;0.70;;
6452;SDS011;3259;51.080;13.712;2023-03-14T14:52:55;15.35;;;1.55;;
6452;SDS011;3259;51.080;13.712;2023-03-14T14:55:49;46.20;;;2.75;;
6452;SDS011;3259;51.080;13.712;2023-03-14T14:58:39;19.25;;;1.92;;
6452;SDS011;3259;51.080;13.712;2023-03-14T15:01:31;33.20;;;2.70;;
6452;SDS011;3259;51.080;13.712;2023-03-14T15:04:22;53.10;;;4.03;;
6452;SDS011;3259;51.080;13.712;2023-03-14T15:07:10;49.65;;;3.10;;
6452;SDS011;3259;51.080;13.712;2023-03-14T15:09:59;38.67;;;2.30;;
6452;SDS011;3259;51.080;13.712;2023-03-14T15:12:49;30.33;;;1.65;;
6452;SDS011;3259;51.080;13.712;2023-03-14T15:15:38;23.67;;;1.17;;
6452;SDS011;3259;51.080;13.712;2023-03-14T15:18:28;15.73;;;2.03;;
6452;SDS011;3259;51.080;13.712;2023-03-14T15:21:18;7.78;;;0.70;;
6452;SDS011;3259;51.080;13.712;2023-03-14T15:24:08;16.52;;;0.65;;
6452;SDS011;3259;51.080;13.712;2023-03-14T15:26:57;9.80;;;1.27;;
6452;SDS011;3259;51.080;13.712;2023-03-14T15:29:47;4.60;;;0.80;;
6452;SDS011;3259;51.080;13.712;2023-03-14T15:32:36;7.80;;;0.50;;
6452;SDS011;3259;51.080;13.712;2023-03-14T15:35:24;5.80;;;0.50;;
6452;SDS011;3259;51.080;13.712;2023-03-14T15:38:14;4.88;;;0.28;;
6452;SDS011;3259;51.080;13.712;2023-03-14T15:41:03;6.07;;;0.55;;
6452;SDS011;3259;51.080;13.712;2023-03-14T15:43:52;6.82;;;0.40;;
6452;SDS011;3259;51.080;13.712;2023-03-14T15:46:43;2.40;;;0.28;;
6452;SDS011;3259;51.080;13.712;2023-03-14T15:49:32;3.50;;;0.80;;
6452;SDS011;3259;51.080;13.712;2023-03-14T15:52:21;0.68;;;0.40;;
6452;SDS011;3259;51.080;13.712;2023-03-14T15:55:09;6.25;;;0.63;;
6452;SDS011;3259;51.080;13.712;2023-03-14T15:57:58;2.90;;;0.20;;
6452;SDS011;3259;51.080;13.712;2023-03-14T16:00:49;1.40;;;0.20;;
6452;SDS011;3259;51.080;13.712;2023-03-14T16:03:39;3.30;;;1.10;;
6452;SDS011;3259;51.080;13.712;2023-03-14T16:06:30;2.72;;;0.25;;
6452;SDS011;3259;51.080;13.712;2023-03-14T16:09:19;5.55;;;0.40;;
6452;SDS011;3259;51.080;13.712;2023-03-14T16:12:10;3.97;;;0.28;;
6452;SDS011;3259;51.080;13.712;2023-03-14T16:14:58;1.73;;;0.38;;
6452;SDS011;3259;51.080;13.712;2023-03-14T16:17:47;6.95;;;0.98;;
6452;SDS011;3259;51.080;13.712;2023-03-14T16:20:41;1.10;;;0.20;;
6452;SDS011;3259;51.080;13.712;2023-03-14T16:23:34;0.55;;;0.20;;
6452;SDS011;3259;51.080;13.712;2023-03-14T16:26:23;4.90;;;0.40;;
6452;SDS011;3259;51.080;13.712;2023-03-14T16:29:12;2.92;;;0.73;;
6452;SDS011;3259;51.080;13.712;2023-03-14T16:32:00;1.10;;;0.55;;
6452;SDS011;3259;51.080;13.712;2023-03-14T16:34:49;1.20;;;0.10;;
6452;SDS011;3259;51.080;13.712;2023-03-14T16:37:39;2.88;;;0.20;;
6452;SDS011;3259;51.080;13.712;2023-03-14T16:40:28;2.17;;;0.30;;
6452;SDS011;3259;51.080;13.712;2023-03-14T16:43:17;0.38;;;0.10;;
6452;SDS011;3259;51.080;13.712;2023-03-14T16:46:06;0.63;;;0.10;;
6452;SDS011;3259;51.080;13.712;2023-03-14T16:48:56;0.85;;;0.40;;
6452;SDS011;3259;51.080;13.712;2023-03-14T16:51:45;2.05;;;0.30;;
6452;SDS011;3259;51.080;13.712;2023-03-14T16:54:35;2.17;;;0.10;;
6452;SDS011;3259;51.080;13.712;2023-03-14T16:57:24;1.63;;;0.30;;
6452;SDS011;3259;51.080;13.712;2023-03-14T17:00:13;0.45;;;0.20;;
6452;SDS011;3259;51.080;13.712;2023-03-14T17:03:02;0.47;;;0.30;;
6452;SDS011;3259;51.080;13.712;2023-03-14T17:05:51;0.38;;;0.13;;
6452;SDS011;3259;51.080;13.712;2023-03-14T17:08:40;2.10;;;0.20;;
6452;SDS011;3259;51.080;13.712;2023-03-14T17:11:30;0.55;;;0.05;;
6452;SDS011;3259;51.080;13.712;2023-03-14T17:14:19;0.15;;;0.10;;
6452;SDS011;3259;51.080;13.712;2023-03-14T17:17:09;2.38;;;0.40;;
6452;SDS011;3259;51.080;13.712;2023-03-14T17:19:58;3.28;;;0.17;;
6452;SDS011;3259;51.080;13.712;2023-03-14T17:22:47;0.28;;;0.10;;
6452;SDS011;3259;51.080;13.712;2023-03-14T17:25:35;5.38;;;0.20;;
6452;SDS011;3259;51.080;13.712;2023-03-14T17:28:26;4.35;;;0.43;;